createdAt,value
2023-01-12T00:01:12.016Z,7.43
2023-01-12T00:03:40.079Z,6.03
2023-01-12T00:06:12.761Z,5.60
2023-01-12T00:08:41.104Z,7.83
2023-01-12T00:11:09.302Z,7.40
2023-01-12T00:13:37.176Z,5.47
2023-01-12T00:16:26.095Z,7.10
2023-01-12T00:18:54.366Z,4.83
2023-01-12T00:21:23.606Z,9.03
2023-01-12T00:23:51.508Z,8.43
2023-01-12T00:26:19.376Z,7.30
2023-01-12T00:28:47.542Z,7.43
2023-01-12T00:31:15.548Z,8.77
2023-01-12T00:33:43.446Z,6.53
2023-01-12T00:36:14.005Z,5.27
2023-01-12T00:38:43.474Z,6.03
2023-01-12T00:41:33.530Z,5.63
2023-01-12T00:44:19.467Z,6.03
2023-01-12T00:46:47.732Z,4.50
2023-01-12T00:49:15.807Z,5.13
2023-01-12T00:51:43.796Z,5.00
2023-01-12T00:54:13.209Z,5.00
2023-01-12T00:56:41.297Z,7.43
2023-01-12T00:59:09.234Z,7.00
2023-01-12T01:01:37.339Z,4.03
2023-01-12T01:04:05.749Z,17.07
2023-01-12T01:06:33.587Z,4.37
2023-01-12T01:09:01.699Z,5.47
2023-01-12T01:11:31.136Z,6.30
2023-01-12T01:13:59.350Z,4.37
2023-01-12T01:16:27.472Z,7.63
2023-01-12T01:18:55.401Z,5.00
2023-01-12T01:21:23.328Z,7.13
2023-01-12T01:23:51.382Z,5.10
2023-01-12T01:26:22.825Z,5.93
2023-01-12T01:28:53.100Z,6.53
2023-01-12T01:31:23.504Z,4.93
2023-01-12T01:33:51.872Z,7.33
2023-01-12T01:36:20.993Z,6.13
2023-01-12T01:38:50.245Z,4.67
2023-01-12T01:41:22.544Z,6.10
2023-01-12T01:43:58.613Z,6.17
2023-01-12T01:46:43.053Z,6.47
2023-01-12T01:49:27.578Z,6.00
2023-01-12T01:52:00.435Z,6.53
2023-01-12T01:54:34.680Z,7.77
2023-01-12T01:57:03.062Z,7.07
2023-01-12T01:59:35.714Z,4.93
2023-01-12T02:02:04.373Z,6.33
2023-01-12T02:04:33.089Z,3.77
2023-01-12T02:07:03.383Z,4.87
2023-01-12T02:09:31.758Z,3.40
2023-01-12T02:12:17.808Z,4.47
2023-01-12T02:15:07.438Z,4.67
2023-01-12T02:17:48.888Z,7.97
2023-01-12T02:20:37.035Z,5.93
2023-01-12T02:23:41.158Z,4.03
2023-01-12T02:26:48.661Z,3.83
2023-01-12T02:29:43.079Z,4.07
2023-01-12T02:32:20.803Z,5.70
2023-01-12T02:34:59.636Z,3.90
2023-01-12T02:37:35.405Z,4.60
2023-01-12T02:40:08.439Z,6.03
2023-01-12T02:42:41.742Z,3.20
2023-01-12T02:45:24.979Z,2.80
2023-01-12T02:47:58.478Z,3.73
2023-01-12T02:50:33.340Z,3.97
2023-01-12T02:53:07.394Z,3.20
2023-01-12T02:55:36.371Z,3.17
2023-01-12T02:58:07.343Z,3.00
2023-01-12T03:00:38.795Z,3.97
2023-01-12T03:03:08.443Z,2.73
2023-01-12T03:05:40.037Z,1.97
2023-01-12T03:08:12.808Z,2.30
2023-01-12T03:10:59.016Z,3.80
2023-01-12T03:13:29.546Z,6.60
2023-01-12T03:15:58.986Z,3.23
2023-01-12T03:18:33.921Z,5.50
2023-01-12T03:21:06.192Z,3.87
2023-01-12T03:23:41.335Z,5.30
2023-01-12T03:26:13.426Z,4.60
2023-01-12T03:28:44.791Z,5.43
2023-01-12T03:31:15.447Z,5.33
2023-01-12T03:33:46.712Z,8.17
2023-01-12T03:36:24.450Z,6.40
2023-01-12T03:39:02.252Z,3.43
2023-01-12T03:41:39.333Z,4.80
2023-01-12T03:44:11.913Z,6.07
2023-01-12T03:46:44.116Z,8.80
2023-01-12T03:49:19.353Z,4.90
2023-01-12T03:51:49.927Z,4.07
2023-01-12T03:54:20.220Z,4.57
2023-01-12T03:56:49.820Z,4.27
2023-01-12T03:59:17.908Z,4.10
2023-01-12T04:01:48.160Z,6.00
2023-01-12T04:04:17.565Z,4.47
2023-01-12T04:06:45.449Z,7.73
2023-01-12T04:09:13.461Z,5.57
2023-01-12T04:11:58.762Z,6.77
2023-01-12T04:14:26.850Z,6.63
2023-01-12T04:16:54.918Z,5.87
2023-01-12T04:19:24.358Z,4.57
2023-01-12T04:22:10.325Z,5.10
2023-01-12T04:24:38.343Z,5.53
2023-01-12T04:27:06.501Z,7.17
2023-01-12T04:29:34.400Z,6.60
2023-01-12T04:32:02.701Z,9.27
2023-01-12T04:34:32.092Z,5.20
2023-01-12T04:37:02.024Z,6.73
2023-01-12T04:39:30.181Z,6.93
2023-01-12T04:41:58.380Z,6.13
2023-01-12T04:44:26.468Z,6.97
2023-01-12T04:46:54.364Z,4.93
2023-01-12T04:49:22.510Z,6.77
2023-01-12T04:51:52.648Z,5.13
2023-01-12T04:54:21.203Z,6.53
2023-01-12T04:56:49.308Z,5.80
2023-01-12T04:59:17.386Z,4.83
2023-01-12T05:01:45.374Z,5.97
2023-01-12T05:04:14.940Z,5.93
2023-01-12T05:06:42.862Z,6.97
2023-01-12T05:09:35.294Z,5.53
2023-01-12T05:12:03.197Z,4.77
2023-01-12T05:14:31.340Z,5.20
2023-01-12T05:16:59.696Z,4.60
2023-01-12T05:19:27.770Z,6.30
2023-01-12T05:21:55.663Z,5.50
2023-01-12T05:24:25.058Z,6.80
2023-01-12T05:26:53.023Z,7.87
2023-01-12T05:29:21.218Z,5.30
2023-01-12T05:31:50.000Z,7.33
2023-01-12T05:34:19.453Z,5.07
2023-01-12T05:36:47.559Z,4.77
2023-01-12T05:39:16.104Z,3.67
2023-01-12T05:41:59.285Z,6.10
2023-01-12T05:44:27.337Z,5.80
2023-01-12T05:46:55.186Z,5.47
2023-01-12T05:49:23.103Z,3.57
2023-01-12T05:51:51.500Z,4.57
2023-01-12T05:54:19.479Z,4.03
2023-01-12T05:56:49.934Z,3.47
2023-01-12T05:59:18.315Z,3.43
2023-01-12T06:01:46.261Z,6.57
2023-01-12T06:04:14.157Z,3.93
2023-01-12T06:06:42.355Z,4.13
2023-01-12T06:09:10.499Z,4.07
2023-01-12T06:11:55.979Z,5.87
2023-01-12T06:14:25.212Z,2.60
2023-01-12T06:16:53.242Z,3.90
2023-01-12T06:19:21.152Z,3.77
2023-01-12T06:21:49.298Z,3.53
2023-01-12T06:24:17.151Z,3.50
2023-01-12T06:26:45.544Z,3.63
2023-01-12T06:29:13.705Z,4.20
2023-01-12T06:31:44.028Z,3.50
2023-01-12T06:34:12.047Z,1.10
2023-01-12T06:36:40.589Z,2.53
2023-01-12T06:39:08.514Z,2.90
2023-01-12T06:41:53.769Z,2.13
2023-01-12T06:44:21.836Z,1.53
2023-01-12T06:46:51.491Z,3.97
2023-01-12T06:49:19.722Z,1.43
2023-01-12T06:51:49.157Z,2.60
2023-01-12T06:54:19.986Z,3.40
2023-01-12T06:56:48.104Z,1.47
2023-01-12T06:59:16.017Z,3.20
2023-01-12T07:01:44.005Z,1.63
2023-01-12T07:04:13.300Z,1.30
2023-01-12T07:06:41.433Z,2.33
2023-01-12T07:09:09.295Z,2.57
2023-01-12T07:11:37.167Z,2.50
2023-01-12T07:14:06.647Z,4.03
2023-01-12T07:16:35.874Z,1.37
2023-01-12T07:19:04.022Z,1.90
2023-01-12T07:21:33.407Z,2.60
2023-01-12T07:24:01.327Z,2.57
2023-01-12T07:26:29.445Z,2.63
2023-01-12T07:28:57.430Z,1.80
2023-01-12T07:31:25.800Z,1.20
2023-01-12T07:33:54.378Z,1.80
2023-01-12T07:36:22.889Z,4.07
2023-01-12T07:38:52.151Z,1.37
2023-01-12T07:41:34.331Z,1.80
2023-01-12T07:44:09.683Z,2.03
2023-01-12T07:46:37.998Z,1.77
2023-01-12T07:49:05.971Z,1.90
2023-01-12T07:51:33.885Z,1.63
2023-01-12T07:54:03.372Z,2.70
2023-01-12T07:56:31.225Z,3.07
2023-01-12T07:58:59.353Z,2.60
2023-01-12T08:01:27.496Z,3.60
2023-01-12T08:03:55.773Z,2.30
2023-01-12T08:06:23.647Z,5.83
2023-01-12T08:08:53.351Z,4.87
2023-01-12T08:11:23.653Z,4.43
2023-01-12T08:13:55.238Z,5.33
2023-01-12T08:16:28.702Z,2.47
2023-01-12T08:19:01.460Z,2.57
2023-01-12T08:21:34.048Z,4.50
2023-01-12T08:24:05.512Z,2.07
2023-01-12T08:26:38.862Z,4.10
2023-01-12T08:29:13.179Z,4.07
2023-01-12T08:31:42.055Z,3.13
2023-01-12T08:34:10.779Z,3.40
2023-01-12T08:36:40.677Z,4.27
2023-01-12T08:39:08.714Z,2.27
2023-01-12T08:41:38.073Z,4.87
2023-01-12T08:44:09.663Z,6.67
2023-01-12T08:46:39.439Z,2.67
2023-01-12T08:49:11.293Z,3.43
2023-01-12T08:51:40.390Z,2.87
2023-01-12T08:54:09.889Z,2.37
2023-01-12T08:56:39.804Z,2.43
2023-01-12T08:59:08.250Z,2.07
2023-01-12T09:01:36.810Z,4.17
2023-01-12T09:04:05.027Z,1.90
2023-01-12T09:06:36.028Z,2.90
2023-01-12T09:09:06.376Z,3.03
2023-01-12T09:11:35.187Z,4.07
2023-01-12T09:14:04.492Z,4.10
2023-01-12T09:16:34.192Z,2.67
2023-01-12T09:19:02.450Z,2.40
2023-01-12T09:21:31.728Z,2.60
2023-01-12T09:23:59.938Z,3.30
2023-01-12T09:26:31.977Z,4.17
2023-01-12T09:29:00.748Z,2.43
2023-01-12T09:31:32.306Z,2.30
2023-01-12T09:34:00.922Z,2.80
2023-01-12T09:36:30.654Z,4.00
2023-01-12T09:38:59.442Z,4.33
2023-01-12T09:41:47.184Z,2.40
2023-01-12T09:44:37.964Z,3.03
2023-01-12T09:47:16.780Z,2.83
2023-01-12T09:49:53.614Z,2.43
2023-01-12T09:52:27.179Z,2.30
2023-01-12T09:54:55.198Z,2.83
2023-01-12T09:58:00.825Z,4.10
2023-01-12T10:00:29.143Z,3.33
2023-01-12T10:03:12.980Z,3.00
2023-01-12T10:05:46.172Z,2.63
2023-01-12T10:08:19.071Z,1.33
2023-01-12T10:11:01.840Z,1.03
2023-01-12T10:13:44.880Z,2.13
2023-01-12T10:16:21.615Z,2.13
2023-01-12T10:18:55.305Z,2.57
2023-01-12T10:21:24.881Z,3.13
2023-01-12T10:23:55.334Z,3.23
2023-01-12T10:26:24.946Z,1.23
2023-01-12T10:28:56.327Z,0.80
2023-01-12T10:31:25.915Z,1.63
2023-01-12T10:34:06.842Z,1.83
2023-01-12T10:36:36.515Z,1.83
2023-01-12T10:39:05.663Z,2.93
2023-01-12T10:41:35.254Z,2.07
2023-01-12T10:44:17.507Z,1.23
2023-01-12T10:46:59.145Z,0.70
2023-01-12T10:49:28.622Z,0.83
2023-01-12T10:51:59.983Z,0.93
2023-01-12T10:54:31.497Z,1.73
2023-01-12T10:57:04.035Z,1.53
2023-01-12T10:59:34.890Z,2.07
2023-01-12T11:02:26.252Z,2.47
2023-01-12T11:04:56.147Z,1.10
2023-01-12T11:07:26.377Z,1.00
2023-01-12T11:09:55.545Z,1.40
2023-01-12T11:12:29.770Z,0.93
2023-01-12T11:15:01.580Z,1.60
2023-01-12T11:17:44.820Z,1.03
2023-01-12T11:20:22.271Z,2.53
2023-01-12T11:22:54.717Z,1.90
2023-01-12T11:25:24.314Z,1.43
2023-01-12T11:27:56.623Z,2.87
2023-01-12T11:30:30.678Z,1.57
2023-01-12T11:33:04.251Z,2.57
2023-01-12T11:35:38.473Z,1.40
2023-01-12T11:38:13.310Z,1.20
2023-01-12T11:40:42.468Z,1.93
2023-01-12T11:43:42.378Z,2.50
2023-01-12T11:46:20.004Z,1.20
2023-01-12T11:48:54.370Z,2.17
2023-01-12T11:51:23.911Z,20.67
2023-01-12T11:53:52.006Z,7.40
2023-01-12T11:56:40.224Z,4.53
2023-01-12T11:59:14.968Z,3.97
2023-01-12T12:01:51.897Z,2.47
2023-01-12T12:04:37.223Z,3.23
2023-01-12T12:07:27.299Z,1.10
2023-01-12T12:10:06.440Z,1.27
2023-01-12T12:12:47.259Z,1.60
2023-01-12T12:15:29.082Z,2.57
2023-01-12T12:18:10.386Z,2.80
2023-01-12T12:20:44.360Z,2.70
2023-01-12T12:23:24.301Z,1.17
2023-01-12T12:26:02.273Z,1.40
2023-01-12T12:28:57.865Z,1.17
2023-01-12T12:31:41.215Z,0.80
2023-01-12T12:34:32.665Z,0.63
2023-01-12T12:37:08.694Z,1.47
2023-01-12T12:39:56.588Z,2.53
2023-01-12T12:43:08.346Z,0.87
2023-01-12T12:45:46.157Z,1.30
2023-01-12T12:48:18.775Z,1.20
2023-01-12T12:50:56.495Z,1.93
2023-01-12T12:53:28.270Z,1.73
2023-01-12T12:56:00.683Z,1.03
2023-01-12T12:58:47.156Z,3.90
2023-01-12T13:01:58.310Z,12.83
2023-01-12T13:05:04.889Z,5.90
2023-01-12T13:07:37.670Z,2.80
2023-01-12T13:10:19.701Z,1.70
2023-01-12T13:13:02.515Z,1.83
2023-01-12T13:15:36.684Z,1.17
2023-01-12T13:18:07.065Z,1.03
2023-01-12T13:20:55.652Z,0.90
2023-01-12T13:23:52.232Z,1.27
2023-01-12T13:26:42.711Z,0.33
2023-01-12T13:29:50.291Z,0.83
2023-01-12T13:32:36.998Z,0.60
2023-01-12T13:35:28.547Z,3.00
2023-01-12T13:38:04.414Z,0.73
2023-01-12T13:40:33.649Z,0.90
2023-01-12T13:43:19.513Z,1.57
2023-01-12T13:45:55.586Z,1.10
2023-01-12T13:48:25.852Z,0.97
2023-01-12T13:50:59.419Z,1.53
2023-01-12T13:53:29.283Z,1.20
2023-01-12T13:56:00.126Z,0.87
2023-01-12T13:58:29.309Z,1.70
2023-01-12T14:00:59.942Z,1.13
2023-01-12T14:03:49.742Z,0.80
2023-01-12T14:06:25.331Z,0.90
2023-01-12T14:09:03.461Z,1.20
2023-01-12T14:12:16.537Z,1.00
2023-01-12T14:15:26.549Z,0.63
2023-01-12T14:18:04.038Z,0.63
2023-01-12T14:20:42.817Z,1.33
2023-01-12T14:23:21.048Z,1.00
2023-01-12T14:26:08.387Z,1.43
2023-01-12T14:28:36.919Z,1.67
2023-01-12T14:31:05.956Z,0.60
2023-01-12T14:33:36.219Z,2.90
2023-01-12T14:36:08.167Z,1.03
2023-01-12T14:38:37.363Z,1.00
2023-01-12T14:41:28.349Z,2.10
2023-01-12T14:44:14.500Z,1.43
2023-01-12T14:46:53.498Z,1.67
2023-01-12T14:49:23.757Z,0.80
2023-01-12T14:51:56.928Z,1.00
2023-01-12T14:54:30.523Z,0.80
2023-01-12T14:57:01.249Z,0.70
2023-01-12T14:59:31.609Z,0.97
2023-01-12T15:02:29.851Z,1.03
2023-01-12T15:05:01.387Z,0.70
2023-01-12T15:07:35.024Z,0.20
2023-01-12T15:10:05.845Z,1.53
2023-01-12T15:12:48.641Z,1.87
2023-01-12T15:15:18.944Z,1.00
2023-01-12T15:18:04.869Z,1.00
2023-01-12T15:20:54.963Z,0.70
2023-01-12T15:23:47.508Z,1.17
2023-01-12T15:26:15.529Z,0.90
2023-01-12T15:28:44.662Z,0.43
2023-01-12T15:31:21.471Z,0.73
2023-01-12T15:33:49.623Z,1.40
2023-01-12T15:36:17.678Z,0.80
2023-01-12T15:38:47.030Z,0.70
2023-01-12T15:41:39.140Z,0.93
2023-01-12T15:44:09.410Z,0.57
2023-01-12T15:46:37.562Z,0.50
2023-01-12T15:49:05.691Z,1.80
2023-01-12T15:51:34.507Z,0.43
2023-01-12T15:54:04.285Z,0.77
2023-01-12T15:56:32.296Z,0.40
2023-01-12T15:59:00.324Z,0.70
2023-01-12T16:01:36.988Z,0.70
2023-01-12T16:04:40.543Z,0.50
2023-01-12T16:06:55.520Z,0.83
2023-01-12T16:09:25.023Z,0.60
2023-01-12T16:11:52.927Z,0.57
2023-01-12T16:14:20.955Z,0.67
2023-01-12T16:16:48.965Z,0.87
2023-01-12T16:19:22.475Z,0.33
2023-01-12T16:21:50.692Z,0.33
2023-01-12T16:24:18.702Z,0.47
2023-01-12T16:26:48.720Z,0.70
2023-01-12T16:29:17.786Z,1.07
2023-01-12T16:31:46.279Z,1.13
2023-01-12T16:34:18.354Z,1.00
2023-01-12T16:36:46.341Z,1.63
2023-01-12T16:39:14.352Z,1.70
2023-01-12T16:41:42.370Z,0.50
2023-01-12T16:44:12.461Z,0.80
2023-01-12T16:46:40.805Z,0.50
2023-01-12T16:49:08.732Z,0.40
2023-01-12T16:51:36.909Z,0.50
2023-01-12T16:54:05.164Z,0.50
2023-01-12T16:56:33.091Z,0.77
2023-01-12T16:59:01.090Z,0.60
2023-01-12T17:01:30.750Z,0.47
2023-01-12T17:03:58.916Z,1.57
2023-01-12T17:06:29.511Z,0.83
2023-01-12T17:09:01.824Z,0.33
2023-01-12T17:11:30.777Z,1.57
2023-01-12T17:13:59.233Z,1.50
2023-01-12T17:16:29.449Z,1.53
2023-01-12T17:18:58.813Z,2.13
2023-01-12T17:21:27.253Z,1.33
2023-01-12T17:23:55.546Z,1.50
2023-01-12T17:26:24.161Z,1.00
2023-01-12T17:28:52.110Z,1.13
2023-01-12T17:31:21.093Z,1.00
2023-01-12T17:33:50.017Z,0.70
2023-01-12T17:36:20.025Z,1.13
2023-01-12T17:38:47.890Z,1.73
2023-01-12T17:41:31.891Z,1.23
2023-01-12T17:44:01.425Z,1.67
2023-01-12T17:46:29.985Z,1.07
2023-01-12T17:48:58.748Z,0.70
2023-01-12T17:51:28.643Z,0.50
2023-01-12T17:53:57.146Z,1.00
2023-01-12T17:56:25.538Z,1.33
2023-01-12T17:58:54.744Z,1.13
2023-01-12T18:01:24.529Z,1.53
2023-01-12T18:03:52.531Z,0.87
2023-01-12T18:06:26.461Z,0.93
2023-01-12T18:08:59.307Z,1.30
2023-01-12T18:11:28.072Z,1.17
2023-01-12T18:13:56.825Z,3.10
2023-01-12T18:16:25.309Z,1.33
2023-01-12T18:18:54.139Z,1.27
2023-01-12T18:21:25.028Z,1.17
2023-01-12T18:23:54.041Z,0.77
2023-01-12T18:26:25.861Z,1.07
2023-01-12T18:28:54.668Z,0.80
2023-01-12T18:31:24.896Z,1.07
2023-01-12T18:33:56.938Z,1.17
2023-01-12T18:36:26.554Z,0.47
2023-01-12T18:38:55.983Z,0.97
2023-01-12T18:41:43.119Z,0.90
2023-01-12T18:44:11.408Z,0.80
2023-01-12T18:47:01.485Z,1.30
2023-01-12T18:49:31.191Z,1.97
2023-01-12T18:52:17.384Z,1.30
2023-01-12T18:54:47.330Z,0.97
2023-01-12T18:57:18.544Z,2.23
2023-01-12T18:59:47.124Z,1.93
2023-01-12T19:02:16.755Z,1.20
2023-01-12T19:05:04.395Z,1.70
2023-01-12T19:07:39.157Z,1.13
2023-01-12T19:10:08.278Z,1.70
2023-01-12T19:12:37.628Z,1.43
2023-01-12T19:15:23.979Z,1.30
2023-01-12T19:17:51.842Z,0.83
2023-01-12T19:20:21.079Z,1.80
2023-01-12T19:23:06.288Z,1.03
2023-01-12T19:25:52.245Z,1.77
2023-01-12T19:28:35.591Z,2.43
2023-01-12T19:31:05.750Z,1.10
2023-01-12T19:33:34.996Z,1.03
2023-01-12T19:36:07.683Z,1.07
2023-01-12T19:38:35.889Z,1.13
2023-01-12T19:41:12.053Z,1.40
2023-01-12T19:43:44.874Z,2.33
2023-01-12T19:46:13.438Z,1.50
2023-01-12T19:48:41.786Z,1.90
2023-01-12T19:51:11.427Z,0.97
2023-01-12T19:53:40.375Z,0.80
2023-01-12T19:56:10.285Z,0.80
2023-01-12T19:58:38.499Z,2.03
2023-01-12T20:01:08.157Z,0.87
2023-01-12T20:03:39.931Z,2.40
2023-01-12T20:06:09.032Z,0.87
2023-01-12T20:08:37.207Z,0.60
2023-01-12T20:11:06.010Z,0.80
2023-01-12T20:13:34.926Z,1.80
2023-01-12T20:16:08.120Z,1.80
2023-01-12T20:18:36.199Z,1.67
2023-01-12T20:21:09.129Z,1.00
2023-01-12T20:23:37.353Z,1.17
2023-01-12T20:26:07.590Z,0.80
2023-01-12T20:28:35.864Z,1.30
2023-01-12T20:31:11.523Z,0.83
2023-01-12T20:33:40.126Z,1.17
2023-01-12T20:36:11.711Z,0.87
2023-01-12T20:38:41.655Z,1.50
2023-01-12T20:41:10.000Z,0.93
2023-01-12T20:43:38.247Z,0.50
2023-01-12T20:46:08.484Z,0.67
2023-01-12T20:48:37.915Z,0.47
2023-01-12T20:51:08.455Z,2.10
2023-01-12T20:53:36.515Z,0.53
2023-01-12T20:56:04.606Z,0.83
2023-01-12T20:58:32.779Z,1.10
2023-01-12T21:01:00.873Z,1.57
2023-01-12T21:03:29.181Z,0.97
2023-01-12T21:05:59.930Z,0.93
2023-01-12T21:08:28.236Z,0.83
2023-01-12T21:10:56.210Z,2.30
2023-01-12T21:13:24.124Z,1.23
2023-01-12T21:15:58.404Z,2.10
2023-01-12T21:18:26.338Z,2.47
2023-01-12T21:20:54.446Z,1.07
2023-01-12T21:23:24.660Z,1.30
2023-01-12T21:25:52.885Z,1.53
2023-01-12T21:28:20.935Z,1.60
2023-01-12T21:30:48.832Z,1.27
2023-01-12T21:33:17.650Z,2.33
2023-01-12T21:35:45.644Z,0.90
2023-01-12T21:38:14.073Z,2.47
2023-01-12T21:40:43.310Z,1.20
2023-01-12T21:43:12.474Z,2.47
2023-01-12T21:45:43.177Z,1.40
2023-01-12T21:48:12.932Z,1.03
2023-01-12T21:50:41.945Z,1.50
2023-01-12T21:53:13.192Z,1.00
2023-01-12T21:55:41.455Z,1.63
2023-01-12T21:58:10.658Z,1.97
2023-01-12T22:00:38.955Z,2.80
2023-01-12T22:03:06.878Z,1.40
2023-01-12T22:05:35.728Z,1.40
2023-01-12T22:08:04.155Z,2.43
2023-01-12T22:10:32.214Z,1.33
2023-01-12T22:13:02.694Z,1.40
2023-01-12T22:15:32.916Z,4.00
2023-01-12T22:18:00.881Z,1.87
2023-01-12T22:20:29.206Z,2.17
2023-01-12T22:22:57.371Z,1.33
2023-01-12T22:25:25.975Z,1.03
2023-01-12T22:27:54.313Z,0.93
2023-01-12T22:30:25.122Z,0.80
2023-01-12T22:32:56.199Z,0.80
2023-01-12T22:35:26.491Z,1.27
2023-01-12T22:37:55.675Z,1.10
2023-01-12T22:40:23.593Z,1.77
2023-01-12T22:43:08.904Z,1.33
2023-01-12T22:45:37.739Z,1.53
2023-01-12T22:48:07.924Z,1.10
2023-01-12T22:50:35.975Z,1.10
2023-01-12T22:53:03.881Z,1.60
2023-01-12T22:55:32.018Z,1.23
2023-01-12T22:58:00.248Z,2.00
2023-01-12T23:00:28.320Z,1.83
2023-01-12T23:03:02.673Z,1.80
2023-01-12T23:05:36.002Z,1.53
2023-01-12T23:08:05.055Z,0.70
2023-01-12T23:10:33.772Z,0.80
2023-01-12T23:13:17.859Z,1.00
2023-01-12T23:15:52.316Z,0.77
2023-01-12T23:18:23.540Z,0.40
2023-01-12T23:20:52.799Z,1.00
2023-01-12T23:23:20.709Z,1.37
2023-01-12T23:25:49.002Z,0.60
2023-01-12T23:28:17.021Z,1.03
2023-01-12T23:30:45.449Z,0.90
2023-01-12T23:33:13.522Z,0.33
2023-01-12T23:35:42.694Z,0.20
2023-01-12T23:38:16.152Z,0.47
2023-01-12T23:40:44.066Z,1.93
2023-01-12T23:43:12.258Z,0.60
2023-01-12T23:45:40.219Z,0.70
2023-01-12T23:48:08.649Z,1.97
2023-01-12T23:50:36.813Z,0.30
2023-01-12T23:53:04.800Z,1.43
2023-01-12T23:55:34.051Z,1.50
2023-01-12T23:58:02.297Z,1.30
